»·PEaware :: ASA59 KLAS-KSFO

ASA59 :: KLAS-KSFO

FLIGHT INFORMATION

Flight Status: Arrived
Operator:
Alaska Airlines
More flights by this operator :: More flights under this callsign
Pilot: Max W. (2591)
Aircraft: AIRBUS A320
(A320)
More flights by this aircraft type
Origin: KLAS McCarran Intl
United States
Destination: KSFO San Francisco Intl
United States
More flights between these airports :: More routes between these airports
Route: +SHEAD1 KENNO RUSME DYAMD4
File this flight plan on PilotEdge
Remarks: I HAVE A PEN AND PAPER READY TO COPY THE NUMBER
Altitude:
(Current/Filed)
28,000ft
Speed:
(Current/Filed)
450kts
Departed: 21-Sep-18 08:05 PM
Arrived: 21-Sep-18 09:14 PM
Distance/Time
Traveled:
359nm/1:09
Distance/Time
To Go:
Arrived

Flight Plot

Page will automatically refresh every two minutes.

Flight plan parsing failed; only flown route is shown


Map Options




Map Legend


Flown Route
Filed Route
Departure Airport
Arrival Airport
Navaid (VOR, NDB)
Fix

Horizontal Profiles

Position Reports

Time Latitude Longitude Heading Altitude Ground
Speed
21-Sep-18 19:40 36.080571 -115.140579 134 2121ft 0kts
21-Sep-18 19:41 36.080571 -115.140579 134 2121ft 0kts
21-Sep-18 19:42 36.080571 -115.140579 134 2121ft 0kts
21-Sep-18 19:43 36.080571 -115.140579 134 2121ft 0kts
21-Sep-18 19:44 36.080571 -115.140579 134 2121ft 0kts
21-Sep-18 19:45 36.080571 -115.140579 134 2121ft 0kts
21-Sep-18 19:46 36.080571 -115.140579 134 2121ft 0kts
21-Sep-18 19:47 36.080571 -115.140579 134 2121ft 0kts
21-Sep-18 19:48 36.080571 -115.140579 134 2121ft 0kts
21-Sep-18 19:49 36.080571 -115.140579 134 2121ft 0kts
21-Sep-18 19:50 36.080578 -115.140589 135 2121ft 1kts
21-Sep-18 19:51 36.080996 -115.141112 134 2121ft 2kts
21-Sep-18 19:52 36.081340 -115.141104 226 2121ft 0kts
21-Sep-18 19:53 36.081365 -115.141071 226 2121ft 0kts
21-Sep-18 19:54 36.081272 -115.141189 224 2121ft 3kts
21-Sep-18 19:55 36.080154 -115.141573 168 2121ft 8kts
21-Sep-18 19:56 36.079439 -115.141275 201 2121ft 5kts
21-Sep-18 19:57 36.077530 -115.141900 253 2121ft 7kts
21-Sep-18 19:58 36.077553 -115.143569 273 2121ft 5kts
21-Sep-18 19:59 36.077704 -115.146016 276 2121ft 7kts
21-Sep-18 20:00 36.077850 -115.148265 273 2121ft 7kts
21-Sep-18 20:01 36.078026 -115.151591 270 2121ft 8kts
21-Sep-18 20:02 36.078031 -115.154254 271 2121ft 9kts
21-Sep-18 20:03 36.078009 -115.158362 268 2121ft 15kts
21-Sep-18 20:04 36.077659 -115.161232 178 2121ft 0kts
21-Sep-18 20:05 36.077659 -115.161232 178 2121ft 0kts
21-Sep-18 20:06 36.077659 -115.161232 178 2121ft 0kts
21-Sep-18 20:07 36.076369 -115.147961 89 2121ft 146kts
21-Sep-18 20:08 36.076413 -115.084834 87 4450ft 196kts
21-Sep-18 20:09 36.077283 -115.004373 89 5844ft 274kts
21-Sep-18 20:10 36.034959 -114.932887 160 8282ft 289kts
21-Sep-18 20:11 35.956515 -114.913021 201 10446ft 309kts
21-Sep-18 20:12 35.918893 -115.007374 279 11178ft 360kts
21-Sep-18 20:13 35.942496 -115.129099 282 13114ft 371kts
21-Sep-18 20:14 35.967285 -115.254148 282 14916ft 380kts
21-Sep-18 20:15 36.003813 -115.376523 306 16496ft 391kts
21-Sep-18 20:16 36.074542 -115.479861 307 17987ft 399kts
21-Sep-18 20:17 36.146955 -115.585557 307 18963ft 403kts
21-Sep-18 20:18 36.218748 -115.690627 306 19442ft 408kts
21-Sep-18 20:19 36.292382 -115.798653 306 20677ft 415kts
21-Sep-18 20:20 36.367184 -115.908765 306 21798ft 422kts
21-Sep-18 20:21 36.443134 -116.020841 306 22835ft 429kts
21-Sep-18 20:22 36.520267 -116.135147 306 23781ft 435kts
21-Sep-18 20:23 36.598093 -116.250884 306 24654ft 441kts
21-Sep-18 20:24 36.677230 -116.368978 306 25462ft 446kts
21-Sep-18 20:25 36.756905 -116.488300 306 26194ft 451kts
21-Sep-18 20:26 36.836967 -116.608630 306 27076ft 451kts
21-Sep-18 20:27 36.915042 -116.726412 305 27943ft 449kts
21-Sep-18 20:28 36.994204 -116.846254 305 27956ft 448kts
21-Sep-18 20:29 37.073626 -116.966916 305 27954ft 456kts
21-Sep-18 20:30 37.152509 -117.087146 305 27955ft 461kts
21-Sep-18 20:31 37.233717 -117.211448 305 27955ft 461kts
21-Sep-18 20:32 37.318156 -117.331209 316 27957ft 457kts
21-Sep-18 20:33 37.413834 -117.433690 317 27957ft 451kts
21-Sep-18 20:34 37.490306 -117.554488 289 27956ft 444kts
21-Sep-18 20:35 37.509350 -117.702280 274 27946ft 439kts
21-Sep-18 20:36 37.521611 -117.854549 274 27928ft 438kts
21-Sep-18 20:37 37.533833 -118.007487 274 27938ft 439kts
21-Sep-18 20:38 37.545830 -118.160118 274 27956ft 440kts
21-Sep-18 20:39 37.557651 -118.313068 274 27966ft 440kts
21-Sep-18 20:40 37.569288 -118.466244 274 27967ft 440kts
21-Sep-18 20:41 37.580777 -118.620139 274 27965ft 440kts
21-Sep-18 20:42 37.591636 -118.768163 274 27967ft 441kts
21-Sep-18 20:43 37.602633 -118.920755 274 27968ft 441kts
21-Sep-18 20:44 37.613499 -119.074427 274 27962ft 441kts
21-Sep-18 20:45 37.624198 -119.228428 274 27957ft 441kts
21-Sep-18 20:46 37.634681 -119.382284 274 27954ft 440kts
21-Sep-18 20:47 37.644927 -119.535679 274 27953ft 440kts
21-Sep-18 20:48 37.654722 -119.685192 273 27955ft 440kts
21-Sep-18 20:49 37.664311 -119.834487 273 27960ft 441kts
21-Sep-18 20:50 37.673896 -119.986781 273 27958ft 440kts
21-Sep-18 20:51 37.683341 -120.140194 273 27956ft 440kts
21-Sep-18 20:52 37.692562 -120.293145 273 27646ft 426kts
21-Sep-18 20:53 37.695441 -120.436678 261 26743ft 405kts
21-Sep-18 20:54 37.679310 -120.574495 262 25167ft 392kts
21-Sep-18 20:55 37.664172 -120.703071 261 23437ft 378kts
21-Sep-18 20:56 37.649284 -120.827657 261 21976ft 359kts
21-Sep-18 20:57 37.634576 -120.949409 261 20226ft 348kts
21-Sep-18 20:58 37.619006 -121.067638 261 18496ft 339kts
21-Sep-18 20:59 37.603500 -121.183060 261 16780ft 330kts
21-Sep-18 21:00 37.588786 -121.294988 263 15113ft 321kts
21-Sep-18 21:01 37.576401 -121.404220 263 13472ft 313kts
21-Sep-18 21:02 37.564082 -121.510701 263 12202ft 294kts
21-Sep-18 21:03 37.552595 -121.608915 263 11085ft 277kts
21-Sep-18 21:04 37.532540 -121.701191 254 9965ft 276kts
21-Sep-18 21:05 37.511553 -121.788792 254 8849ft 254kts
21-Sep-18 21:06 37.491331 -121.873092 253 7930ft 248kts
21-Sep-18 21:07 37.470684 -121.951495 251 7035ft 219kts
21-Sep-18 21:08 37.469589 -122.018128 296 5576ft 197kts
21-Sep-18 21:09 37.492745 -122.073815 295 4755ft 188kts
21-Sep-18 21:10 37.514876 -122.126916 295 3817ft 152kts
21-Sep-18 21:11 37.534477 -122.173876 295 3074ft 151kts
21-Sep-18 21:12 37.553991 -122.220549 295 2318ft 150kts
21-Sep-18 21:13 37.573475 -122.267118 295 1574ft 149kts
21-Sep-18 21:14 37.592713 -122.313044 295 815ft 147kts
21-Sep-18 21:15 37.611727 -122.358367 296 86ft 145kts
21-Sep-18 21:16 37.622318 -122.386027 270 21ft 0kts
21-Sep-18 21:17 37.621504 -122.386375 218 21ft 12kts
21-Sep-18 21:18 37.621290 -122.386689 220 21ft 0kts

Navigation Log

Ident Type
Flight plan parsing failed, navigation log unavailable